CMA CGM Herodote — MFEP — position and weather

sailwx.info

Track history (hours):
 
Tides and Currents Weather Stations Pressure Air Temp Water Temp Dewpoint Dewpoint Depression Visibility Wind Speed Wind Dir Waves Ship Positions

CMA CGM Herodote

Last reported at 2014-Dec-02 03:31 UTC. Time now 2014-Dec-18 23:45 UTC.
Position N 17°36' W 063°06'.
Warning: this ship's position is 16 days out of date.

Length 170 m; draft 8.8 m.

Type: Ship (hazmat cat A). MMSI: 235051085.

Date/timePositionNaut miles runAvg speedWind from/ knotsBaromVisibWave heightAir tempDewpointWater temp
2014-Dec-02 03:31N 17°36' W 063°06'1919.2
2014-Dec-02 02:32N 17°55' W 063°06'7 0.5
2014-Dec-01 14:15N 18°01' W 063°03'0 0.0
2014-Dec-01 11:33N 18°01' W 063°03'3 0.2
2014-Nov-30 16:29N 17°58' W 063°05'  
2014-Nov-25 22:33N 37°20' W 028°49'1818.4
2014-Nov-25 21:33N 37°27' W 028°27'1818.4
2014-Nov-25 20:33N 37°35' W 028°06'1818.4
2014-Nov-25 19:33N 37°42' W 027°45'1918.7
2014-Nov-25 18:33N 37°49' W 027°23'1818.3
2014-Nov-25 17:34N 37°56' W 027°02'1818.0
2014-Nov-25 16:33N 38°03' W 026°40'1817.9
2014-Nov-25 15:34N 38°10' W 026°19'1818.2
2014-Nov-25 14:33N 38°17' W 025°58'1818.4
2014-Nov-25 13:34N 38°24' W 025°37'1918.6
2014-Nov-25 12:33N 38°32' W 025°15'1818.2
2014-Nov-25 11:33N 38°38' W 024°53'1818.1
2014-Nov-25 10:33N 38°45' W 024°31'  
2014-Nov-22 20:32N 50°01' W 002°41'8416.8
2014-Nov-22 15:33N 49°39' W 000°36'2019.8
2014-Nov-22 14:33N 49°31' W 000°08'1211.6
2014-Nov-22 13:32N 49°29' E 000°10'0 0.0
2014-Nov-22 12:32N 49°29' E 000°10'0 0.0
2014-Nov-22 11:32N 49°29' E 000°10'0 0.0
2014-Nov-22 10:32N 49°29' E 000°10'0 0.0
2014-Nov-22 09:32N 49°29' E 000°10'0 0.0
2014-Nov-22 08:32N 49°29' E 000°10'0 0.0
2014-Nov-22 07:32N 49°29' E 000°10'0 0.0
2014-Nov-22 06:32N 49°29' E 000°10'0 0.0
2014-Nov-22 05:32N 49°29' E 000°10'0 0.0
2014-Nov-22 04:32N 49°29' E 000°10'0 0.0
2014-Nov-22 03:32N 49°29' E 000°10'  
Track history (hours):
 
Tides and Currents Weather Stations Pressure Air Temp Water Temp Dewpoint Dewpoint Depression Visibility Wind Speed Wind Dir Waves Ship Positions

CMA CGM Herodote

Last reported at 2014-Dec-02 03:31 UTC. Time now 2014-Dec-18 23:45 UTC.
Position N 17°36' W 063°06'.
Warning: this ship's position is 16 days out of date.

Length 170 m; draft 8.8 m.

Type: Ship (hazmat cat A). MMSI: 235051085.

Date/timePositionNaut miles runAvg speedWind from/ knotsBaromVisibWave heightAir tempDewpointWater temp
2014-Dec-02 03:31N 17°36' W 063°06'1919.2
2014-Dec-02 02:32N 17°55' W 063°06'7 0.5
2014-Dec-01 14:15N 18°01' W 063°03'0 0.0
2014-Dec-01 11:33N 18°01' W 063°03'3 0.2
2014-Nov-30 16:29N 17°58' W 063°05'  
2014-Nov-25 22:33N 37°20' W 028°49'1818.4
2014-Nov-25 21:33N 37°27' W 028°27'1818.4
2014-Nov-25 20:33N 37°35' W 028°06'1818.4
2014-Nov-25 19:33N 37°42' W 027°45'1918.7
2014-Nov-25 18:33N 37°49' W 027°23'1818.3
2014-Nov-25 17:34N 37°56' W 027°02'1818.0
2014-Nov-25 16:33N 38°03' W 026°40'1817.9
2014-Nov-25 15:34N 38°10' W 026°19'1818.2
2014-Nov-25 14:33N 38°17' W 025°58'1818.4
2014-Nov-25 13:34N 38°24' W 025°37'1918.6
2014-Nov-25 12:33N 38°32' W 025°15'1818.2
2014-Nov-25 11:33N 38°38' W 024°53'1818.1
2014-Nov-25 10:33N 38°45' W 024°31'  
2014-Nov-22 20:32N 50°01' W 002°41'8416.8
2014-Nov-22 15:33N 49°39' W 000°36'2019.8
2014-Nov-22 14:33N 49°31' W 000°08'1211.6
2014-Nov-22 13:32N 49°29' E 000°10'0 0.0
2014-Nov-22 12:32N 49°29' E 000°10'0 0.0
2014-Nov-22 11:32N 49°29' E 000°10'0 0.0
2014-Nov-22 10:32N 49°29' E 000°10'0 0.0
2014-Nov-22 09:32N 49°29' E 000°10'0 0.0
2014-Nov-22 08:32N 49°29' E 000°10'0 0.0
2014-Nov-22 07:32N 49°29' E 000°10'0 0.0
2014-Nov-22 06:32N 49°29' E 000°10'0 0.0
2014-Nov-22 05:32N 49°29' E 000°10'0 0.0
2014-Nov-22 04:32N 49°29' E 000°10'0 0.0
2014-Nov-22 03:32N 49°29' E 000°10'  

Dump ship's entire track history